Time;durP1;ratioP1;P1;durP2;ratioP2;P2;SDS_P1;SDS_P2;PMS_P1;PMS_P2;Temp;Humidity;BMP_temperature;BMP_pressure;BME280_temperature;BME280_humidity;BME280_pressure;Samples;Min_cycle;Max_cycle;Signal;HPM_P1;HPM_P2
2023/03/02 00:00:57;;;;;;;3.72;2.90;;;;;;;;;;5056746;28;20185;-83
2023/03/02 00:03:27;;;;;;;3.78;2.97;;;;;;;;;;5057514;28;20178;-82
2023/03/02 00:05:55;;;;;;;3.90;3.58;;;;;;;;;;5056750;28;20205;-83
2023/03/02 00:08:23;;;;;;;3.10;2.80;;;;;;;;;;5056343;28;20312;-82
2023/03/02 00:10:53;;;;;;;3.22;2.92;;;;;;;;;;5056471;28;20587;-83
2023/03/02 00:13:20;;;;;;;5.80;3.38;;;;;;;;;;5057053;28;20202;-83
2023/03/02 00:15:48;;;;;;;3.35;3.13;;;;;;;;;;5056576;28;20236;-82
2023/03/02 00:18:15;;;;;;;3.25;2.70;;;;;;;;;;5056702;28;20312;-83
2023/03/02 00:20:44;;;;;;;3.13;2.83;;;;;;;;;;5056084;28;20297;-82
2023/03/02 00:23:12;;;;;;;2.78;2.58;;;;;;;;;;5056227;28;20312;-81
2023/03/02 00:25:40;;;;;;;3.75;3.03;;;;;;;;;;5056705;28;20202;-82
2023/03/02 00:28:07;;;;;;;2.70;2.50;;;;;;;;;;5056830;28;20229;-82
2023/03/02 00:30:35;;;;;;;3.20;2.90;;;;;;;;;;5055276;28;20292;-84
2023/03/02 00:33:02;;;;;;;3.65;2.90;;;;;;;;;;5056169;28;20289;-81
2023/03/02 00:35:29;;;;;;;3.42;3.13;;;;;;;;;;5056061;28;20293;-83
2023/03/02 00:37:58;;;;;;;3.80;3.40;;;;;;;;;;5055718;28;20650;-82
2023/03/02 00:40:26;;;;;;;3.30;3.00;;;;;;;;;;5055039;28;20247;-82
2023/03/02 00:42:53;;;;;;;2.47;2.28;;;;;;;;;;5055299;28;20333;-81
2023/03/02 00:45:21;;;;;;;4.53;3.60;;;;;;;;;;5055623;28;20269;-82
2023/03/02 00:47:48;;;;;;;4.57;3.50;;;;;;;;;;5054393;28;20269;-83
2023/03/02 00:50:15;;;;;;;4.15;3.47;;;;;;;;;;5054276;28;20296;-82
2023/03/02 00:52:43;;;;;;;4.53;3.15;;;;;;;;;;5054871;28;20289;-81
2023/03/02 00:55:12;;;;;;;3.63;3.33;;;;;;;;;;5054879;28;20313;-81
2023/03/02 00:57:39;;;;;;;4.20;3.38;;;;;;;;;;5054810;28;20627;-82
2023/03/02 01:00:09;;;;;;;3.30;3.00;;;;;;;;;;5054717;28;20726;-81
2023/03/02 01:02:37;;;;;;;3.70;3.08;;;;;;;;;;5055177;28;20245;-82
2023/03/02 01:05:06;;;;;;;3.83;3.28;;;;;;;;;;5054950;28;20202;-81
2023/03/02 01:07:34;;;;;;;4.57;3.53;;;;;;;;;;5054669;28;20662;-81
2023/03/02 01:10:01;;;;;;;3.63;3.33;;;;;;;;;;5054197;28;20320;-82
2023/03/02 01:12:31;;;;;;;5.10;3.70;;;;;;;;;;5054781;28;20289;-80
2023/03/02 01:14:59;;;;;;;3.95;3.47;;;;;;;;;;5055162;28;20292;-82
2023/03/02 01:17:26;;;;;;;3.72;3.00;;;;;;;;;;5054897;28;20212;-82
2023/03/02 01:19:55;;;;;;;4.88;4.15;;;;;;;;;;5054338;28;20740;-82
2023/03/02 01:22:22;;;;;;;3.67;3.30;;;;;;;;;;5055359;28;20271;-82
2023/03/02 01:24:50;;;;;;;3.63;2.65;;;;;;;;;;5054078;28;20289;-82
2023/03/02 01:27:18;;;;;;;4.10;2.85;;;;;;;;;;5054864;28;20670;-82
2023/03/02 01:29:47;;;;;;;3.13;2.70;;;;;;;;;;5054636;28;20679;-81
2023/03/02 01:32:14;;;;;;;4.07;3.47;;;;;;;;;;5055146;28;20237;-82
2023/03/02 01:34:42;;;;;;;3.35;3.05;;;;;;;;;;5053553;28;20742;-81
2023/03/02 01:37:09;;;;;;;4.30;3.28;;;;;;;;;;5054006;28;20202;-80
2023/03/02 01:39:37;;;;;;;2.90;2.60;;;;;;;;;;5053321;28;20308;-82
2023/03/02 01:42:05;;;;;;;3.70;2.97;;;;;;;;;;5054102;28;20296;-81
2023/03/02 01:44:44;;;;;;;2.97;2.67;;;;;;;;;;5054225;28;20198;-82
2023/03/02 01:47:18;;;;;;;4.53;3.15;;;;;;;;;;5054479;28;20194;-81
2023/03/02 01:49:50;;;;;;;4.40;3.83;;;;;;;;;;5054070;28;20232;-81
2023/03/02 01:52:18;;;;;;;3.53;2.97;;;;;;;;;;5054069;28;20197;-81
2023/03/02 01:54:48;;;;;;;5.75;4.63;;;;;;;;;;5054249;28;20200;-81
2023/03/02 01:57:21;;;;;;;3.92;3.42;;;;;;;;;;5054289;28;20224;-82
2023/03/02 01:59:52;;;;;;;3.70;3.03;;;;;;;;;;5052576;28;20232;-83
2023/03/02 02:02:21;;;;;;;3.20;2.90;;;;;;;;;;5054320;28;20240;-82
2023/03/02 02:04:49;;;;;;;2.95;2.65;;;;;;;;;;5053902;28;20284;-81
2023/03/02 02:07:17;;;;;;;2.58;2.28;;;;;;;;;;5053797;28;20205;-82
2023/03/02 02:09:48;;;;;;;4.10;3.47;;;;;;;;;;5053118;28;20317;-82
2023/03/02 02:12:16;;;;;;;2.95;2.70;;;;;;;;;;5054220;28;20285;-83
2023/03/02 02:14:45;;;;;;;3.53;2.97;;;;;;;;;;5054293;28;20552;-80
2023/03/02 02:17:13;;;;;;;4.38;3.58;;;;;;;;;;5054080;28;20269;-81
2023/03/02 02:20:07;;;;;;;5.93;4.07;;;;;;;;;;5053180;28;20313;-82
2023/03/02 02:22:48;;;;;;;4.30;3.33;;;;;;;;;;5053888;28;20194;-82
2023/03/02 02:25:23;;;;;;;3.55;3.25;;;;;;;;;;5054179;28;20619;-83
2023/03/02 02:27:51;;;;;;;3.55;3.25;;;;;;;;;;5053960;28;20239;-82
2023/03/02 02:30:19;;;;;;;3.92;3.00;;;;;;;;;;5052746;28;20248;-82
2023/03/02 02:32:48;;;;;;;4.38;3.70;;;;;;;;;;5053589;28;20212;-81
2023/03/02 02:35:20;;;;;;;4.10;2.88;;;;;;;;;;5052444;28;20208;-82
2023/03/02 02:37:51;;;;;;;3.42;3.03;;;;;;;;;;5053267;28;20681;-81
2023/03/02 02:40:36;;;;;;;3.63;3.33;;;;;;;;;;5053022;28;20229;-81
2023/03/02 02:43:06;;;;;;;4.55;3.28;;;;;;;;;;5053979;28;20213;-82
2023/03/02 02:45:35;;;;;;;4.40;3.60;;;;;;;;;;5054009;28;20565;-82
2023/03/02 02:48:02;;;;;;;3.90;3.33;;;;;;;;;;5054134;28;20225;-82
2023/03/02 02:50:33;;;;;;;5.18;3.40;;;;;;;;;;5052835;28;20204;-82
2023/03/02 02:53:05;;;;;;;3.15;2.85;;;;;;;;;;5053683;28;20178;-80
2023/03/02 02:55:33;;;;;;;4.43;3.05;;;;;;;;;;5053676;28;20277;-81
2023/03/02 02:58:08;;;;;;;3.35;2.53;;;;;;;;;;5053932;28;20312;-81
2023/03/02 03:00:38;;;;;;;5.05;3.10;;;;;;;;;;5053419;28;20197;-81
2023/03/02 03:03:29;;;;;;;2.70;2.50;;;;;;;;;;5053951;28;20197;-81
2023/03/02 03:05:58;;;;;;;3.08;2.72;;;;;;;;;;5053968;28;20625;-83
2023/03/02 03:08:54;;;;;;;2.42;2.22;;;;;;;;;;5052538;28;20237;-80
2023/03/02 03:11:25;;;;;;;3.05;2.75;;;;;;;;;;5060245;28;20292;-86
2023/03/02 03:14:00;;;;;;;2.85;2.55;;;;;;;;;;5060961;28;20194;-86
2023/03/02 03:16:31;;;;;;;2.97;2.58;;;;;;;;;;5062151;28;20249;-86
2023/03/02 03:19:04;;;;;;;4.80;3.17;;;;;;;;;;5060158;28;20662;-85
2023/03/02 03:21:32;;;;;;;3.60;3.22;;;;;;;;;;5060926;28;20702;-86
2023/03/02 03:23:59;;;;;;;4.30;3.30;;;;;;;;;;5061081;28;20313;-86
2023/03/02 03:26:27;;;;;;;4.25;3.60;;;;;;;;;;5060428;28;20288;-87
2023/03/02 03:28:56;;;;;;;4.15;3.40;;;;;;;;;;5059334;28;20300;-85
2023/03/02 03:31:25;;;;;;;4.53;4.07;;;;;;;;;;5061114;28;20224;-85
2023/03/02 03:33:54;;;;;;;3.92;3.47;;;;;;;;;;5059800;28;20288;-85
2023/03/02 03:36:22;;;;;;;5.25;4.07;;;;;;;;;;5058353;28;20211;-85
2023/03/02 03:38:49;;;;;;;4.70;3.50;;;;;;;;;;5058473;28;20667;-86
2023/03/02 03:41:17;;;;;;;4.65;4.07;;;;;;;;;;5060305;28;20301;-86
2023/03/02 03:43:44;;;;;;;4.43;3.58;;;;;;;;;;5059737;28;20253;-86
2023/03/02 03:46:12;;;;;;;3.55;3.25;;;;;;;;;;5068574;28;20201;-86
2023/03/02 03:48:40;;;;;;;8.30;4.50;;;;;;;;;;5067212;28;20245;-85
2023/03/02 03:51:09;;;;;;;5.05;3.88;;;;;;;;;;5067984;28;20225;-86
2023/03/02 03:53:36;;;;;;;4.32;3.92;;;;;;;;;;5068627;28;20570;-87
2023/03/02 03:56:05;;;;;;;5.22;4.07;;;;;;;;;;5068991;28;20232;-87
2023/03/02 03:58:33;;;;;;;4.68;4.15;;;;;;;;;;5068316;28;20277;-86
2023/03/02 04:01:00;;;;;;;6.68;4.20;;;;;;;;;;5069033;28;20817;-86
2023/03/02 04:03:28;;;;;;;4.55;4.15;;;;;;;;;;5069710;28;20209;-87
2023/03/02 04:06:01;;;;;;;4.03;3.50;;;;;;;;;;5069192;28;20253;-86
2023/03/02 04:08:30;;;;;;;5.55;4.15;;;;;;;;;;5065774;28;20241;-86
2023/03/02 04:10:58;;;;;;;6.22;4.03;;;;;;;;;;5068569;28;20762;-86
2023/03/02 04:13:25;;;;;;;7.32;4.88;;;;;;;;;;5068584;28;20198;-85
2023/03/02 04:15:53;;;;;;;5.15;3.75;;;;;;;;;;5067407;28;20197;-86
2023/03/02 04:18:20;;;;;;;4.93;3.70;;;;;;;;;;5067624;28;20610;-87
2023/03/02 04:20:48;;;;;;;4.45;3.90;;;;;;;;;;5066138;28;20642;-86
2023/03/02 04:23:15;;;;;;;4.40;3.72;;;;;;;;;;5067224;28;20229;-87
2023/03/02 04:25:44;;;;;;;6.07;3.72;;;;;;;;;;5068170;28;20232;-87
2023/03/02 04:28:11;;;;;;;4.90;4.25;;;;;;;;;;5068003;28;20248;-85
2023/03/02 04:30:39;;;;;;;3.90;3.50;;;;;;;;;;5066737;28;20265;-87
2023/03/02 04:33:06;;;;;;;4.28;3.60;;;;;;;;;;5068230;28;20229;-87
2023/03/02 04:35:34;;;;;;;4.65;3.70;;;;;;;;;;5067803;28;20205;-86
2023/03/02 04:38:01;;;;;;;4.70;3.75;;;;;;;;;;5068667;28;20275;-84
2023/03/02 04:40:29;;;;;;;5.40;3.80;;;;;;;;;;5067404;28;20253;-87
2023/03/02 04:42:58;;;;;;;4.78;4.07;;;;;;;;;;5068349;28;20185;-86
2023/03/02 04:45:26;;;;;;;7.05;4.40;;;;;;;;;;5068130;28;20296;-85
2023/03/02 04:47:53;;;;;;;5.85;4.40;;;;;;;;;;5068439;28;20201;-83
2023/03/02 04:50:21;;;;;;;3.28;2.90;;;;;;;;;;5066451;28;20241;-85
2023/03/02 04:52:49;;;;;;;3.95;3.47;;;;;;;;;;5066180;28;20659;-86
2023/03/02 04:55:21;;;;;;;3.65;3.10;;;;;;;;;;5065885;28;20567;-86
2023/03/02 04:57:49;;;;;;;5.72;3.92;;;;;;;;;;5067337;28;20186;-87
2023/03/02 05:00:20;;;;;;;3.95;3.55;;;;;;;;;;5066345;28;20209;-86
2023/03/02 05:02:48;;;;;;;7.88;3.85;;;;;;;;;;5066676;28;20189;-86
2023/03/02 05:05:18;;;;;;;4.40;4.00;;;;;;;;;;5066331;28;20253;-86
2023/03/02 05:07:45;;;;;;;5.15;4.35;;;;;;;;;;5066771;28;20285;-84
2023/03/02 05:10:13;;;;;;;6.05;5.05;;;;;;;;;;5065300;28;20277;-86
2023/03/02 05:12:56;;;;;;;6.07;4.63;;;;;;;;;;5066737;28;20596;-87
2023/03/02 05:15:28;;;;;;;6.00;3.92;;;;;;;;;;5065836;28;20205;-86
2023/03/02 05:17:56;;;;;;;4.28;3.40;;;;;;;;;;5065524;28;20213;-87
2023/03/02 05:20:26;;;;;;;2.95;2.70;;;;;;;;;;5065093;28;20198;-87
2023/03/02 05:22:57;;;;;;;5.30;3.85;;;;;;;;;;5066044;28;20738;-86
2023/03/02 05:25:26;;;;;;;4.97;3.95;;;;;;;;;;5065794;28;20253;-85
2023/03/02 05:27:54;;;;;;;4.60;4.20;;;;;;;;;;5066253;28;20654;-86
2023/03/02 05:30:23;;;;;;;5.88;3.75;;;;;;;;;;5065185;28;20269;-85
2023/03/02 05:32:52;;;;;;;5.47;3.65;;;;;;;;;;5065804;28;20757;-86
2023/03/02 05:35:21;;;;;;;3.80;3.42;;;;;;;;;;5065447;28;20248;-86
2023/03/02 05:37:49;;;;;;;5.70;4.13;;;;;;;;;;5065596;28;20285;-84
2023/03/02 05:40:22;;;;;;;3.50;3.17;;;;;;;;;;5065400;28;20292;-86
2023/03/02 05:42:49;;;;;;;5.22;3.58;;;;;;;;;;5065783;28;20281;-85
2023/03/02 05:45:21;;;;;;;3.67;3.10;;;;;;;;;;5066388;28;20264;-85
2023/03/02 05:47:48;;;;;;;5.78;3.85;;;;;;;;;;5065871;28;20237;-85
2023/03/02 05:50:18;;;;;;;6.15;4.30;;;;;;;;;;5064390;28;20237;-84
2023/03/02 05:52:45;;;;;;;4.72;4.05;;;;;;;;;;5064570;28;20284;-85
2023/03/02 05:55:14;;;;;;;4.55;3.67;;;;;;;;;;5065410;28;20293;-84
2023/03/02 05:57:41;;;;;;;4.85;3.78;;;;;;;;;;5064723;28;20221;-85
2023/03/02 06:00:12;;;;;;;8.73;5.78;;;;;;;;;;5063769;28;20261;-84
2023/03/02 06:02:40;;;;;;;6.40;4.50;;;;;;;;;;5064605;28;20240;-84
2023/03/02 06:05:09;;;;;;;7.47;5.25;;;;;;;;;;5063546;28;20290;-84
2023/03/02 06:07:38;;;;;;;5.22;4.30;;;;;;;;;;5063551;28;20201;-84
2023/03/02 06:10:08;;;;;;;3.33;3.03;;;;;;;;;;5061543;28;20216;-84
2023/03/02 06:12:36;;;;;;;5.20;3.53;;;;;;;;;;5063469;28;20273;-85
2023/03/02 06:15:05;;;;;;;6.18;4.20;;;;;;;;;;5063245;28;20271;-84
2023/03/02 06:17:33;;;;;;;3.83;3.42;;;;;;;;;;5064157;28;20197;-85
2023/03/02 06:20:00;;;;;;;3.72;3.00;;;;;;;;;;5061665;28;20225;-84
2023/03/02 06:22:28;;;;;;;9.65;5.47;;;;;;;;;;5063660;28;20182;-86
2023/03/02 06:24:57;;;;;;;4.75;4.25;;;;;;;;;;5063077;28;20194;-86
2023/03/02 06:27:24;;;;;;;5.65;4.32;;;;;;;;;;5063674;28;20667;-84
2023/03/02 06:29:52;;;;;;;6.38;4.82;;;;;;;;;;5062458;28;20260;-85
2023/03/02 06:32:19;;;;;;;7.20;4.18;;;;;;;;;;5063125;28;20293;-85
2023/03/02 06:34:47;;;;;;;5.43;4.15;;;;;;;;;;5062060;28;20659;-84
2023/03/02 06:37:14;;;;;;;5.95;4.45;;;;;;;;;;5062807;28;20229;-84
2023/03/02 06:39:42;;;;;;;4.60;3.80;;;;;;;;;;5061919;28;20261;-85
2023/03/02 06:42:11;;;;;;;5.57;4.10;;;;;;;;;;5063113;28;20223;-87
2023/03/02 06:44:38;;;;;;;6.82;5.32;;;;;;;;;;5062441;28;20244;-85
2023/03/02 06:47:06;;;;;;;3.95;3.30;;;;;;;;;;5064185;28;20257;-84
2023/03/02 06:49:33;;;;;;;4.60;4.15;;;;;;;;;;5062998;28;20249;-85
2023/03/02 06:52:01;;;;;;;4.65;4.20;;;;;;;;;;5061745;28;20232;-84
2023/03/02 06:54:28;;;;;;;6.10;4.05;;;;;;;;;;5063664;28;20233;-83
2023/03/02 06:56:56;;;;;;;3.88;3.20;;;;;;;;;;5063222;28;20284;-84
2023/03/02 06:59:25;;;;;;;5.60;3.45;;;;;;;;;;5061956;28;20283;-85
2023/03/02 07:01:53;;;;;;;6.35;4.80;;;;;;;;;;5063786;28;20208;-84
2023/03/02 07:04:20;;;;;;;5.93;4.82;;;;;;;;;;5063487;28;20215;-84
2023/03/02 07:06:48;;;;;;;3.92;3.58;;;;;;;;;;5063584;28;20217;-85
2023/03/02 07:09:16;;;;;;;5.75;3.50;;;;;;;;;;5064189;28;20293;-85
2023/03/02 07:11:43;;;;;;;5.45;3.85;;;;;;;;;;5045977;28;20245;-84
2023/03/02 07:14:11;;;;;;;3.70;3.25;;;;;;;;;;5042717;28;20244;-86
2023/03/02 07:16:40;;;;;;;3.58;3.15;;;;;;;;;;5043551;28;20247;-85
2023/03/02 07:19:10;;;;;;;4.75;4.13;;;;;;;;;;5041380;28;20711;-85
2023/03/02 07:21:37;;;;;;;4.68;3.60;;;;;;;;;;5054363;28;20581;-86
2023/03/02 07:24:05;;;;;;;4.93;3.35;;;;;;;;;;5061524;28;20247;-86
2023/03/02 07:26:33;;;;;;;3.67;3.10;;;;;;;;;;5061869;28;20728;-85
2023/03/02 07:29:00;;;;;;;3.30;3.00;;;;;;;;;;5060724;28;20300;-86
2023/03/02 07:31:28;;;;;;;5.18;3.60;;;;;;;;;;5062015;28;20208;-86
2023/03/02 07:33:57;;;;;;;5.63;4.28;;;;;;;;;;5061401;28;20228;-86
2023/03/02 07:36:25;;;;;;;4.50;3.88;;;;;;;;;;5061153;28;20271;-86
2023/03/02 07:38:53;;;;;;;5.93;4.45;;;;;;;;;;5062050;28;20222;-85
2023/03/02 07:41:21;;;;;;;3.97;3.28;;;;;;;;;;5062076;28;20570;-86
2023/03/02 07:43:49;;;;;;;3.72;3.25;;;;;;;;;;5061602;28;20288;-86
2023/03/02 07:46:16;;;;;;;4.75;3.42;;;;;;;;;;5063137;28;20305;-86
2023/03/02 07:48:44;;;;;;;5.00;3.97;;;;;;;;;;5062330;28;20289;-87
2023/03/02 07:51:13;;;;;;;4.90;4.10;;;;;;;;;;5064816;28;20206;-85
2023/03/02 07:53:40;;;;;;;4.70;3.75;;;;;;;;;;5064791;28;20290;-86
2023/03/02 07:56:09;;;;;;;5.32;3.75;;;;;;;;;;5064128;28;20201;-86
2023/03/02 07:58:37;;;;;;;2.83;2.63;;;;;;;;;;5067335;28;20317;-86
2023/03/02 08:01:05;;;;;;;4.20;3.75;;;;;;;;;;5067334;28;20292;-85
2023/03/02 08:03:33;;;;;;;3.97;3.35;;;;;;;;;;5065215;28;20262;-86
2023/03/02 08:06:06;;;;;;;4.57;3.88;;;;;;;;;;5064563;28;20436;-87
2023/03/02 08:08:34;;;;;;;4.85;4.38;;;;;;;;;;5066016;28;20297;-87
2023/03/02 08:11:06;;;;;;;5.22;3.83;;;;;;;;;;5052439;28;20269;-86
2023/03/02 08:13:33;;;;;;;4.72;3.53;;;;;;;;;;5047775;28;20254;-86
2023/03/02 08:16:01;;;;;;;5.47;3.70;;;;;;;;;;5046410;28;20225;-87
2023/03/02 08:18:29;;;;;;;7.90;4.30;;;;;;;;;;5044602;28;20666;-86
2023/03/02 08:20:57;;;;;;;6.55;4.68;;;;;;;;;;5045225;28;20229;-86
2023/03/02 08:23:25;;;;;;;4.15;3.72;;;;;;;;;;5045576;28;20199;-87
2023/03/02 08:25:55;;;;;;;6.30;4.18;;;;;;;;;;5045494;28;20293;-86
2023/03/02 08:28:23;;;;;;;5.32;4.82;;;;;;;;;;5043806;28;20671;-87
2023/03/02 08:30:56;;;;;;;6.65;4.75;;;;;;;;;;5045410;28;20230;-87
2023/03/02 08:33:24;;;;;;;4.55;3.50;;;;;;;;;;5043645;28;20618;-86
2023/03/02 08:36:00;;;;;;;3.97;3.28;;;;;;;;;;5043209;28;20214;-85
2023/03/02 08:38:28;;;;;;;4.50;3.45;;;;;;;;;;5043693;28;20961;-87
2023/03/02 08:40:57;;;;;;;5.55;4.38;;;;;;;;;;5056332;28;20232;-86
2023/03/02 08:43:25;;;;;;;4.93;4.30;;;;;;;;;;5064833;28;20571;-86
2023/03/02 08:45:55;;;;;;;4.95;3.83;;;;;;;;;;5065904;28;20649;-86
2023/03/02 08:48:23;;;;;;;5.63;3.95;;;;;;;;;;5064626;28;20805;-87
2023/03/02 08:50:58;;;;;;;7.00;3.60;;;;;;;;;;5064925;28;20229;-87
2023/03/02 08:53:26;;;;;;;5.03;3.50;;;;;;;;;;5065007;28;20205;-87
2023/03/02 08:55:54;;;;;;;4.82;4.25;;;;;;;;;;5066145;28;20292;-87
2023/03/02 08:58:23;;;;;;;7.07;4.07;;;;;;;;;;5064052;28;20260;-88
2023/03/02 09:00:51;;;;;;;4.35;3.70;;;;;;;;;;5064348;28;20622;-87
2023/03/02 09:03:18;;;;;;;5.03;4.05;;;;;;;;;;5064892;28;20245;-87
2023/03/02 09:05:46;;;;;;;5.00;4.30;;;;;;;;;;5064255;28;20201;-86
2023/03/02 09:08:13;;;;;;;5.53;4.60;;;;;;;;;;5061155;28;20233;-86
2023/03/02 09:10:41;;;;;;;5.25;3.83;;;;;;;;;;5060534;28;20228;-87
2023/03/02 09:13:09;;;;;;;4.35;3.95;;;;;;;;;;5062509;28;20270;-88
2023/03/02 09:15:38;;;;;;;4.97;3.90;;;;;;;;;;5059677;28;20732;-86
2023/03/02 09:18:05;;;;;;;6.93;4.68;;;;;;;;;;5059583;28;20226;-85
2023/03/02 09:20:33;;;;;;;6.00;4.47;;;;;;;;;;5058389;28;20249;-84
2023/03/02 09:23:01;;;;;;;4.15;3.75;;;;;;;;;;5059479;28;20722;-84
2023/03/02 09:25:29;;;;;;;4.70;4.30;;;;;;;;;;5042383;28;20285;-84
2023/03/02 09:27:56;;;;;;;4.65;4.18;;;;;;;;;;5038900;28;20313;-86
2023/03/02 09:30:24;;;;;;;4.13;3.75;;;;;;;;;;5038227;28;20202;-84
2023/03/02 09:32:52;;;;;;;6.70;5.10;;;;;;;;;;5042386;28;20269;-84
2023/03/02 09:35:20;;;;;;;5.20;4.70;;;;;;;;;;5042479;28;20225;-83
2023/03/02 09:37:47;;;;;;;4.25;3.85;;;;;;;;;;5043388;28;20649;-84
2023/03/02 09:40:20;;;;;;;5.32;4.82;;;;;;;;;;5048571;28;20240;-84
2023/03/02 09:43:07;;;;;;;5.47;4.20;;;;;;;;;;5057661;28;20280;-83
2023/03/02 09:46:03;;;;;;;7.43;4.75;;;;;;;;;;5061721;28;20196;-81
2023/03/02 09:48:40;;;;;;;5.28;4.35;;;;;;;;;;5054274;28;20591;-82
2023/03/02 09:51:29;;;;;;;4.53;4.15;;;;;;;;;;5054573;28;20201;-84
2023/03/02 09:54:03;;;;;;;5.57;3.80;;;;;;;;;;5055064;28;20289;-83
2023/03/02 09:56:31;;;;;;;4.82;4.13;;;;;;;;;;5054836;28;20205;-82
2023/03/02 09:59:05;;;;;;;4.25;3.63;;;;;;;;;;5053547;28;20220;-83
2023/03/02 10:01:40;;;;;;;3.50;3.15;;;;;;;;;;5054455;28;20193;-83
2023/03/02 10:04:19;;;;;;;5.47;4.72;;;;;;;;;;5053688;28;20280;-82
2023/03/02 10:06:47;;;;;;;5.40;3.83;;;;;;;;;;5053890;28;20544;-82
2023/03/02 10:09:14;;;;;;;5.65;4.30;;;;;;;;;;5052979;28;20310;-84
2023/03/02 10:11:56;;;;;;;4.60;4.18;;;;;;;;;;5054096;28;20758;-83
2023/03/02 10:14:29;;;;;;;18.70;16.17;;;;;;;;;;5054769;28;20213;-85
2023/03/02 10:17:19;;;;;;;8.88;7.57;;;;;;;;;;5054584;28;20276;-83
2023/03/02 10:19:53;;;;;;;5.30;4.20;;;;;;;;;;5052101;28;20222;-83
2023/03/02 10:22:27;;;;;;;4.93;3.78;;;;;;;;;;5054019;28;20196;-83
2023/03/02 10:25:02;;;;;;;5.20;4.70;;;;;;;;;;5052372;28;20210;-83
2023/03/02 10:27:40;;;;;;;3.65;3.25;;;;;;;;;;5054235;28;20216;-83
2023/03/02 10:30:17;;;;;;;4.80;3.90;;;;;;;;;;5053974;28;20190;-82
2023/03/02 10:32:48;;;;;;;4.47;3.92;;;;;;;;;;5055373;28;20200;-84
2023/03/02 10:35:19;;;;;;;5.68;3.90;;;;;;;;;;5053607;28;20281;-84
2023/03/02 10:37:47;;;;;;;3.65;3.17;;;;;;;;;;5053146;28;20181;-84
2023/03/02 10:40:33;;;;;;;3.72;3.42;;;;;;;;;;5053643;28;20273;-84
2023/03/02 10:43:01;;;;;;;4.63;4.22;;;;;;;;;;5053686;28;20185;-84
2023/03/02 10:45:31;;;;;;;4.65;3.85;;;;;;;;;;5053730;28;20209;-85
2023/03/02 10:48:03;;;;;;;2.70;2.50;;;;;;;;;;5053601;28;20605;-85
2023/03/02 10:50:32;;;;;;;4.60;4.07;;;;;;;;;;5050094;28;20237;-84
2023/03/02 10:53:00;;;;;;;3.35;3.05;;;;;;;;;;5033619;28;20195;-85
2023/03/02 10:55:27;;;;;;;3.72;3.40;;;;;;;;;;5033252;28;20199;-83
2023/03/02 10:58:02;;;;;;;4.40;3.60;;;;;;;;;;5033533;28;20689;-84
2023/03/02 11:00:31;;;;;;;4.25;2.88;;;;;;;;;;5033561;28;20235;-85
2023/03/02 11:03:01;;;;;;;2.97;2.72;;;;;;;;;;5033717;28;20234;-83
2023/03/02 11:05:33;;;;;;;3.63;2.47;;;;;;;;;;5032941;28;20202;-84
2023/03/02 11:08:04;;;;;;;2.97;2.58;;;;;;;;;;5033064;28;20316;-84
2023/03/02 11:10:35;;;;;;;3.53;3.13;;;;;;;;;;5042601;28;20212;-84
2023/03/02 11:13:14;;;;;;;4.75;3.30;;;;;;;;;;5054227;28;20186;-84
2023/03/02 11:15:46;;;;;;;3.60;3.30;;;;;;;;;;5053563;28;20265;-83
2023/03/02 11:18:23;;;;;;;2.85;2.58;;;;;;;;;;5053233;28;20304;-83
2023/03/02 11:20:54;;;;;;;3.65;3.35;;;;;;;;;;5047530;28;20210;-83
2023/03/02 11:23:30;;;;;;;4.30;3.90;;;;;;;;;;5035962;28;20208;-84
2023/03/02 11:26:02;;;;;;;3.45;3.15;;;;;;;;;;5036522;28;20186;-82
2023/03/02 11:28:44;;;;;;;3.50;3.20;;;;;;;;;;5034558;28;20236;-84
2023/03/02 11:31:20;;;;;;;3.50;3.20;;;;;;;;;;5036260;28;20182;-84
2023/03/02 11:34:06;;;;;;;3.15;2.85;;;;;;;;;;5038884;28;20190;-83
2023/03/02 11:36:45;;;;;;;4.80;4.40;;;;;;;;;;5038305;28;20194;-84
2023/03/02 11:39:18;;;;;;;4.35;3.95;;;;;;;;;;5037851;28;20281;-83
2023/03/02 11:41:46;;;;;;;3.72;3.35;;;;;;;;;;5059209;28;20229;-84
2023/03/02 11:44:16;;;;;;;3.38;2.88;;;;;;;;;;5059473;28;20633;-83
2023/03/02 11:46:48;;;;;;;3.53;3.28;;;;;;;;;;5058686;28;20186;-83
2023/03/02 11:49:21;;;;;;;3.40;3.10;;;;;;;;;;5057771;28;20229;-83
2023/03/02 11:51:57;;;;;;;2.80;2.60;;;;;;;;;;5058809;28;20233;-84
2023/03/02 11:54:36;;;;;;;3.13;2.45;;;;;;;;;;5060648;28;20185;-84
2023/03/02 11:57:04;;;;;;;2.80;2.55;;;;;;;;;;5058797;28;20212;-83
2023/03/02 11:59:32;;;;;;;3.78;3.10;;;;;;;;;;5058067;28;20224;-83
2023/03/02 12:02:00;;;;;;;3.28;2.78;;;;;;;;;;5058134;28;20708;-84
2023/03/02 12:04:32;;;;;;;2.38;2.17;;;;;;;;;;5057637;28;20578;-83
2023/03/02 12:07:03;;;;;;;3.47;3.15;;;;;;;;;;5057873;28;20598;-84
2023/03/02 12:09:36;;;;;;;3.63;3.17;;;;;;;;;;5059458;28;20312;-85
2023/03/02 12:12:40;;;;;;;4.63;3.17;;;;;;;;;;5060003;28;20202;-84
2023/03/02 12:15:37;;;;;;;3.70;3.05;;;;;;;;;;5038501;28;20205;-85
2023/03/02 12:18:30;;;;;;;2.78;2.58;;;;;;;;;;5058414;28;20226;-85
2023/03/02 12:21:04;;;;;;;3.83;3.08;;;;;;;;;;5064366;28;20220;-86
2023/03/02 12:23:36;;;;;;;3.38;3.08;;;;;;;;;;5064836;28;20283;-85
2023/03/02 12:26:23;;;;;;;2.90;2.63;;;;;;;;;;5063539;28;20578;-85
2023/03/02 12:29:01;;;;;;;3.08;2.78;;;;;;;;;;5061829;28;20304;-85
2023/03/02 12:31:45;;;;;;;3.13;2.90;;;;;;;;;;5062054;28;20749;-87
2023/03/02 12:34:36;;;;;;;3.22;2.95;;;;;;;;;;5058408;28;20205;-85
2023/03/02 12:37:13;;;;;;;2.80;2.60;;;;;;;;;;5056212;28;20186;-85
2023/03/02 12:40:29;;;;;;;3.20;2.55;;;;;;;;;;5055486;28;20582;-83
2023/03/02 12:43:31;;;;;;;4.68;4.15;;;;;;;;;;5054227;28;20194;-86
2023/03/02 12:46:33;;;;;;;3.30;3.00;;;;;;;;;;5056801;28;20190;-85
2023/03/02 12:49:08;;;;;;;3.50;2.75;;;;;;;;;;5040027;28;20682;-85
2023/03/02 12:51:50;;;;;;;4.10;3.70;;;;;;;;;;5056183;28;20289;-85
2023/03/02 12:54:20;;;;;;;4.07;3.40;;;;;;;;;;5058326;28;20215;-85
2023/03/02 12:56:50;;;;;;;3.53;3.22;;;;;;;;;;5076927;28;20205;-85
2023/03/02 12:59:26;;;;;;;3.60;2.83;;;;;;;;;;5076035;28;20223;-85
2023/03/02 13:02:19;;;;;;;3.30;3.00;;;;;;;;;;5076685;28;20206;-86
2023/03/02 13:04:55;;;;;;;4.13;3.72;;;;;;;;;;5075986;28;20191;-85
2023/03/02 13:07:26;;;;;;;3.28;2.53;;;;;;;;;;5075889;28;20185;-85
2023/03/02 13:09:55;;;;;;;3.80;3.33;;;;;;;;;;5071145;28;20678;-85
2023/03/02 13:12:27;;;;;;;2.35;2.17;;;;;;;;;;5056121;28;20207;-84
2023/03/02 13:14:58;;;;;;;2.33;2.03;;;;;;;;;;5056677;28;20204;-84
2023/03/02 13:17:29;;;;;;;4.65;3.28;;;;;;;;;;5056313;28;20666;-85
2023/03/02 13:19:58;;;;;;;2.83;2.63;;;;;;;;;;5055124;28;20214;-85
2023/03/02 13:22:26;;;;;;;3.95;3.33;;;;;;;;;;5056877;28;20573;-83
2023/03/02 13:24:59;;;;;;;3.65;2.90;;;;;;;;;;5056875;28;20236;-84
2023/03/02 13:27:28;;;;;;;2.50;2.30;;;;;;;;;;5056320;28;20178;-85
2023/03/02 13:29:56;;;;;;;3.22;2.53;;;;;;;;;;5055721;28;20231;-84
2023/03/02 13:32:26;;;;;;;3.03;2.72;;;;;;;;;;5056625;28;20226;-85
2023/03/02 13:34:56;;;;;;;2.60;2.40;;;;;;;;;;5058044;28;20205;-85
2023/03/02 13:37:34;;;;;;;3.15;2.85;;;;;;;;;;5056772;28;20209;-85
2023/03/02 13:40:06;;;;;;;3.13;2.80;;;;;;;;;;5058018;28;20618;-85
2023/03/02 13:42:42;;;;;;;2.78;2.53;;;;;;;;;;5058589;28;20192;-85
2023/03/02 13:45:23;;;;;;;2.90;2.60;;;;;;;;;;5058320;28;20664;-85
2023/03/02 13:47:51;;;;;;;5.38;3.22;;;;;;;;;;5059102;28;20308;-85
2023/03/02 13:50:26;;;;;;;4.53;3.03;;;;;;;;;;5054361;28;20717;-84
2023/03/02 13:52:56;;;;;;;4.18;3.72;;;;;;;;;;5038430;28;20713;-85
2023/03/02 13:55:24;;;;;;;4.40;3.17;;;;;;;;;;5038252;28;20213;-85
2023/03/02 13:57:53;;;;;;;4.93;3.13;;;;;;;;;;5038214;28;20278;-85
2023/03/02 14:00:25;;;;;;;2.00;1.90;;;;;;;;;;5038186;28;20229;-85
2023/03/02 14:02:53;;;;;;;3.80;2.80;;;;;;;;;;5038281;28;20205;-85
2023/03/02 14:05:25;;;;;;;2.53;2.33;;;;;;;;;;5037576;28;20293;-85
2023/03/02 14:07:53;;;;;;;3.40;3.05;;;;;;;;;;5037740;28;20190;-85
2023/03/02 14:10:21;;;;;;;3.35;3.00;;;;;;;;;;5046333;28;20261;-85
2023/03/02 14:12:56;;;;;;;4.35;3.95;;;;;;;;;;5060713;28;20233;-85
2023/03/02 14:15:24;;;;;;;3.95;3.22;;;;;;;;;;5058669;28;20281;-86
2023/03/02 14:17:51;;;;;;;3.50;2.90;;;;;;;;;;5057842;28;20663;-85
2023/03/02 14:20:22;;;;;;;3.58;3.03;;;;;;;;;;5057282;28;20296;-85
2023/03/02 14:22:50;;;;;;;3.00;2.70;;;;;;;;;;5060242;28;20197;-84
2023/03/02 14:25:19;;;;;;;3.28;2.97;;;;;;;;;;5059244;28;20213;-86
2023/03/02 14:27:46;;;;;;;2.42;2.22;;;;;;;;;;5059383;28;20268;-85
2023/03/02 14:30:21;;;;;;;1.95;1.73;;;;;;;;;;5058896;28;20237;-85
2023/03/02 14:32:49;;;;;;;2.65;2.45;;;;;;;;;;5059073;28;20192;-85
2023/03/02 14:35:17;;;;;;;2.67;2.03;;;;;;;;;;5058838;28;20201;-85
2023/03/02 14:37:48;;;;;;;1.88;1.73;;;;;;;;;;5056454;28;20709;-85
2023/03/02 14:40:18;;;;;;;2.58;2.38;;;;;;;;;;5057497;28;20228;-85
2023/03/02 14:42:47;;;;;;;2.78;2.47;;;;;;;;;;5056155;28;20204;-85
2023/03/02 14:45:15;;;;;;;3.28;2.40;;;;;;;;;;5055988;28;20203;-84
2023/03/02 14:47:44;;;;;;;2.55;2.03;;;;;;;;;;5055377;28;20284;-85
2023/03/02 14:50:12;;;;;;;2.60;2.28;;;;;;;;;;5054340;28;20226;-83
2023/03/02 14:52:43;;;;;;;2.50;2.30;;;;;;;;;;5035882;28;20216;-85
2023/03/02 14:55:18;;;;;;;2.80;2.05;;;;;;;;;;5035466;28;20213;-85
2023/03/02 14:57:53;;;;;;;2.30;2.10;;;;;;;;;;5035327;28;20188;-86
2023/03/02 15:00:21;;;;;;;1.90;1.80;;;;;;;;;;5035729;28;20202;-85
2023/03/02 15:02:50;;;;;;;2.38;2.13;;;;;;;;;;5036047;28;20226;-85
2023/03/02 15:05:21;;;;;;;2.95;2.33;;;;;;;;;;5035809;28;20630;-84